sensor_id;sensor_type;location;lat;lon;timestamp;P1;durP1;ratioP1;P2;durP2;ratioP2
37495;SDS011;23346;52.088;4.746;2022-11-04T00:01:33;0.00;;;0.00;;
37495;SDS011;23346;52.088;4.746;2022-11-04T00:03:59;0.30;;;0.30;;
37495;SDS011;23346;52.088;4.746;2022-11-04T00:06:25;0.10;;;0.10;;
37495;SDS011;23346;52.088;4.746;2022-11-04T00:08:52;0.10;;;0.10;;
37495;SDS011;23346;52.088;4.746;2022-11-04T00:11:18;0.00;;;0.00;;
37495;SDS011;23346;52.088;4.746;2022-11-04T00:14:03;0.00;;;0.00;;
37495;SDS011;23346;52.088;4.746;2022-11-04T00:16:30;0.60;;;0.60;;
37495;SDS011;23346;52.088;4.746;2022-11-04T00:19:15;0.37;;;0.37;;
37495;SDS011;23346;52.088;4.746;2022-11-04T00:21:41;0.20;;;0.20;;
37495;SDS011;23346;52.088;4.746;2022-11-04T00:24:25;0.10;;;0.10;;
37495;SDS011;23346;52.088;4.746;2022-11-04T00:27:15;0.10;;;0.10;;
37495;SDS011;23346;52.088;4.746;2022-11-04T00:30:00;0.00;;;0.00;;
37495;SDS011;23346;52.088;4.746;2022-11-04T00:32:27;0.43;;;0.43;;
37495;SDS011;23346;52.088;4.746;2022-11-04T00:35:12;0.00;;;0.00;;
37495;SDS011;23346;52.088;4.746;2022-11-04T00:37:39;0.00;;;0.00;;
37495;SDS011;23346;52.088;4.746;2022-11-04T00:40:05;0.13;;;0.13;;
37495;SDS011;23346;52.088;4.746;2022-11-04T00:42:31;0.07;;;0.07;;
37495;SDS011;23346;52.088;4.746;2022-11-04T00:44:57;0.10;;;0.10;;
37495;SDS011;23346;52.088;4.746;2022-11-04T00:47:23;0.00;;;0.00;;
37495;SDS011;23346;52.088;4.746;2022-11-04T00:49:49;0.00;;;0.00;;
37495;SDS011;23346;52.088;4.746;2022-11-04T00:52:16;0.00;;;0.00;;
37495;SDS011;23346;52.088;4.746;2022-11-04T00:54:42;0.00;;;0.00;;
37495;SDS011;23346;52.088;4.746;2022-11-04T00:57:08;0.00;;;0.00;;
37495;SDS011;23346;52.088;4.746;2022-11-04T00:59:34;0.00;;;0.00;;
37495;SDS011;23346;52.088;4.746;2022-11-04T01:02:00;0.13;;;0.13;;
37495;SDS011;23346;52.088;4.746;2022-11-04T01:04:26;0.00;;;0.00;;
37495;SDS011;23346;52.088;4.746;2022-11-04T01:06:52;0.10;;;0.10;;
37495;SDS011;23346;52.088;4.746;2022-11-04T01:09:19;0.10;;;0.10;;
37495;SDS011;23346;52.088;4.746;2022-11-04T01:11:45;0.10;;;0.10;;
37495;SDS011;23346;52.088;4.746;2022-11-04T01:14:11;0.10;;;0.10;;
37495;SDS011;23346;52.088;4.746;2022-11-04T01:16:37;0.00;;;0.00;;
37495;SDS011;23346;52.088;4.746;2022-11-04T01:19:03;0.10;;;0.10;;
37495;SDS011;23346;52.088;4.746;2022-11-04T01:21:29;0.10;;;0.10;;
37495;SDS011;23346;52.088;4.746;2022-11-04T01:23:55;0.43;;;0.43;;
37495;SDS011;23346;52.088;4.746;2022-11-04T01:26:22;0.10;;;0.10;;
37495;SDS011;23346;52.088;4.746;2022-11-04T01:28:49;0.20;;;0.20;;
37495;SDS011;23346;52.088;4.746;2022-11-04T01:31:17;0.10;;;0.10;;
37495;SDS011;23346;52.088;4.746;2022-11-04T01:33:45;0.10;;;0.10;;
37495;SDS011;23346;52.088;4.746;2022-11-04T01:36:11;0.10;;;0.10;;
37495;SDS011;23346;52.088;4.746;2022-11-04T01:38:37;0.00;;;0.00;;
37495;SDS011;23346;52.088;4.746;2022-11-04T01:41:04;1.80;;;0.83;;
37495;SDS011;23346;52.088;4.746;2022-11-04T01:43:50;0.10;;;0.10;;
37495;SDS011;23346;52.088;4.746;2022-11-04T01:46:27;0.10;;;0.10;;
37495;SDS011;23346;52.088;4.746;2022-11-04T01:48:55;0.00;;;0.00;;
37495;SDS011;23346;52.088;4.746;2022-11-04T01:51:22;0.00;;;0.00;;
37495;SDS011;23346;52.088;4.746;2022-11-04T01:53:48;0.23;;;0.23;;
37495;SDS011;23346;52.088;4.746;2022-11-04T01:56:16;0.10;;;0.10;;
37495;SDS011;23346;52.088;4.746;2022-11-04T01:58:48;0.00;;;0.00;;
37495;SDS011;23346;52.088;4.746;2022-11-04T02:01:15;0.00;;;0.00;;
37495;SDS011;23346;52.088;4.746;2022-11-04T02:03:48;0.30;;;0.30;;
37495;SDS011;23346;52.088;4.746;2022-11-04T02:06:16;0.03;;;0.03;;
37495;SDS011;23346;52.088;4.746;2022-11-04T02:08:43;0.20;;;0.20;;
37495;SDS011;23346;52.088;4.746;2022-11-04T02:11:09;0.00;;;0.00;;
37495;SDS011;23346;52.088;4.746;2022-11-04T02:13:55;0.00;;;0.00;;
37495;SDS011;23346;52.088;4.746;2022-11-04T02:30:00;0.27;;;0.20;;
37495;SDS011;23346;52.088;4.746;2022-11-04T02:35:19;0.00;;;0.00;;
37495;SDS011;23346;52.088;4.746;2022-11-04T02:37:54;0.00;;;0.00;;
37495;SDS011;23346;52.088;4.746;2022-11-04T02:40:26;0.10;;;0.10;;
37495;SDS011;23346;52.088;4.746;2022-11-04T02:45:41;5.30;;;1.70;;
37495;SDS011;23346;52.088;4.746;2022-11-04T02:48:10;1.20;;;0.80;;
37495;SDS011;23346;52.088;4.746;2022-11-04T02:50:54;0.10;;;0.10;;
37495;SDS011;23346;52.088;4.746;2022-11-04T02:54:04;0.10;;;0.10;;
37495;SDS011;23346;52.088;4.746;2022-11-04T02:56:10;0.23;;;0.23;;
37495;SDS011;23346;52.088;4.746;2022-11-04T02:58:40;0.00;;;0.00;;
37495;SDS011;23346;52.088;4.746;2022-11-04T03:01:06;0.00;;;0.00;;
37495;SDS011;23346;52.088;4.746;2022-11-04T03:03:38;0.20;;;0.20;;
37495;SDS011;23346;52.088;4.746;2022-11-04T03:06:05;0.20;;;0.20;;
37495;SDS011;23346;52.088;4.746;2022-11-04T03:08:34;0.60;;;0.33;;
37495;SDS011;23346;52.088;4.746;2022-11-04T03:11:05;2.47;;;0.70;;
37495;SDS011;23346;52.088;4.746;2022-11-04T03:13:41;0.00;;;0.00;;
37495;SDS011;23346;52.088;4.746;2022-11-04T03:16:13;0.60;;;0.60;;
37495;SDS011;23346;52.088;4.746;2022-11-04T03:21:07;0.00;;;0.00;;
37495;SDS011;23346;52.088;4.746;2022-11-04T03:23:34;0.47;;;0.47;;
37495;SDS011;23346;52.088;4.746;2022-11-04T03:26:08;0.17;;;0.17;;
37495;SDS011;23346;52.088;4.746;2022-11-04T03:28:39;0.40;;;0.40;;
37495;SDS011;23346;52.088;4.746;2022-11-04T03:31:07;0.10;;;0.10;;
37495;SDS011;23346;52.088;4.746;2022-11-04T03:36:00;0.20;;;0.20;;
37495;SDS011;23346;52.088;4.746;2022-11-04T03:38:28;0.60;;;0.60;;
37495;SDS011;23346;52.088;4.746;2022-11-04T03:40:54;1.80;;;1.10;;
37495;SDS011;23346;52.088;4.746;2022-11-04T03:43:21;0.80;;;0.80;;
37495;SDS011;23346;52.088;4.746;2022-11-04T03:45:49;0.40;;;0.40;;
37495;SDS011;23346;52.088;4.746;2022-11-04T03:48:15;0.77;;;0.50;;
37495;SDS011;23346;52.088;4.746;2022-11-04T03:50:46;1.20;;;0.83;;
37495;SDS011;23346;52.088;4.746;2022-11-04T03:53:12;0.90;;;0.90;;
37495;SDS011;23346;52.088;4.746;2022-11-04T03:58:31;0.40;;;0.33;;
37495;SDS011;23346;52.088;4.746;2022-11-04T04:01:14;0.70;;;0.70;;
37495;SDS011;23346;52.088;4.746;2022-11-04T04:03:45;0.27;;;0.27;;
37495;SDS011;23346;52.088;4.746;2022-11-04T04:06:17;1.17;;;1.07;;
37495;SDS011;23346;52.088;4.746;2022-11-04T04:11:16;2.27;;;1.60;;
37495;SDS011;23346;52.088;4.746;2022-11-04T04:13:48;0.67;;;0.67;;
37495;SDS011;23346;52.088;4.746;2022-11-04T04:16:18;0.27;;;0.27;;
37495;SDS011;23346;52.088;4.746;2022-11-04T04:18:48;1.37;;;1.00;;
37495;SDS011;23346;52.088;4.746;2022-11-04T04:21:16;1.93;;;1.27;;
37495;SDS011;23346;52.088;4.746;2022-11-04T04:23:44;0.63;;;0.63;;
37495;SDS011;23346;52.088;4.746;2022-11-04T04:26:29;0.67;;;0.67;;
37495;SDS011;23346;52.088;4.746;2022-11-04T04:29:15;0.60;;;0.60;;
37495;SDS011;23346;52.088;4.746;2022-11-04T04:31:42;0.80;;;0.63;;
37495;SDS011;23346;52.088;4.746;2022-11-04T04:34:15;0.40;;;0.40;;
37495;SDS011;23346;52.088;4.746;2022-11-04T04:36:45;12.00;;;0.90;;
37495;SDS011;23346;52.088;4.746;2022-11-04T04:39:11;1.07;;;1.07;;
37495;SDS011;23346;52.088;4.746;2022-11-04T04:41:58;1.33;;;1.33;;
37495;SDS011;23346;52.088;4.746;2022-11-04T04:44:43;0.83;;;0.83;;
37495;SDS011;23346;52.088;4.746;2022-11-04T04:47:24;0.60;;;0.60;;
37495;SDS011;23346;52.088;4.746;2022-11-04T04:49:55;0.70;;;0.70;;
37495;SDS011;23346;52.088;4.746;2022-11-04T04:52:22;0.47;;;0.47;;
37495;SDS011;23346;52.088;4.746;2022-11-04T04:54:49;0.23;;;0.23;;
37495;SDS011;23346;52.088;4.746;2022-11-04T04:57:15;1.20;;;1.10;;
37495;SDS011;23346;52.088;4.746;2022-11-04T04:59:41;1.83;;;1.03;;
37495;SDS011;23346;52.088;4.746;2022-11-04T05:02:07;0.20;;;0.20;;
37495;SDS011;23346;52.088;4.746;2022-11-04T05:04:33;2.77;;;0.80;;
37495;SDS011;23346;52.088;4.746;2022-11-04T05:06:59;0.57;;;0.57;;
37495;SDS011;23346;52.088;4.746;2022-11-04T05:09:26;0.47;;;0.47;;
37495;SDS011;23346;52.088;4.746;2022-11-04T05:11:52;1.23;;;1.13;;
37495;SDS011;23346;52.088;4.746;2022-11-04T05:14:18;0.47;;;0.33;;
37495;SDS011;23346;52.088;4.746;2022-11-04T05:16:44;0.30;;;0.30;;
37495;SDS011;23346;52.088;4.746;2022-11-04T05:19:10;1.17;;;0.90;;
37495;SDS011;23346;52.088;4.746;2022-11-04T05:21:36;2.10;;;1.53;;
37495;SDS011;23346;52.088;4.746;2022-11-04T05:24:02;0.67;;;0.67;;
37495;SDS011;23346;52.088;4.746;2022-11-04T05:26:28;1.07;;;1.07;;
37495;SDS011;23346;52.088;4.746;2022-11-04T05:28:54;0.83;;;0.77;;
37495;SDS011;23346;52.088;4.746;2022-11-04T05:31:20;0.80;;;0.80;;
37495;SDS011;23346;52.088;4.746;2022-11-04T05:33:46;1.20;;;1.20;;
37495;SDS011;23346;52.088;4.746;2022-11-04T05:36:13;0.50;;;0.50;;
37495;SDS011;23346;52.088;4.746;2022-11-04T05:38:39;0.50;;;0.50;;
37495;SDS011;23346;52.088;4.746;2022-11-04T05:41:07;0.97;;;0.90;;
37495;SDS011;23346;52.088;4.746;2022-11-04T05:43:33;1.43;;;1.33;;
37495;SDS011;23346;52.088;4.746;2022-11-04T05:45:59;0.40;;;0.40;;
37495;SDS011;23346;52.088;4.746;2022-11-04T05:48:25;2.50;;;2.30;;
37495;SDS011;23346;52.088;4.746;2022-11-04T05:50:51;0.30;;;0.30;;
37495;SDS011;23346;52.088;4.746;2022-11-04T05:53:17;1.43;;;1.33;;
37495;SDS011;23346;52.088;4.746;2022-11-04T05:55:43;1.53;;;1.43;;
37495;SDS011;23346;52.088;4.746;2022-11-04T05:58:09;1.07;;;1.07;;
37495;SDS011;23346;52.088;4.746;2022-11-04T06:00:35;0.27;;;0.27;;
37495;SDS011;23346;52.088;4.746;2022-11-04T06:03:02;1.07;;;0.87;;
37495;SDS011;23346;52.088;4.746;2022-11-04T06:05:28;0.60;;;0.60;;
37495;SDS011;23346;52.088;4.746;2022-11-04T06:07:54;2.63;;;2.20;;
37495;SDS011;23346;52.088;4.746;2022-11-04T06:10:21;5.00;;;1.90;;
37495;SDS011;23346;52.088;4.746;2022-11-04T06:12:47;1.53;;;1.43;;
37495;SDS011;23346;52.088;4.746;2022-11-04T06:15:13;1.60;;;0.77;;
37495;SDS011;23346;52.088;4.746;2022-11-04T06:17:39;0.73;;;0.73;;
37495;SDS011;23346;52.088;4.746;2022-11-04T06:20:05;2.13;;;1.47;;
37495;SDS011;23346;52.088;4.746;2022-11-04T06:22:31;1.43;;;0.80;;
37495;SDS011;23346;52.088;4.746;2022-11-04T06:24:57;1.23;;;0.93;;
37495;SDS011;23346;52.088;4.746;2022-11-04T06:27:23;0.30;;;0.30;;
37495;SDS011;23346;52.088;4.746;2022-11-04T06:29:49;1.60;;;1.10;;
37495;SDS011;23346;52.088;4.746;2022-11-04T06:32:17;0.47;;;0.47;;
37495;SDS011;23346;52.088;4.746;2022-11-04T06:34:43;0.50;;;0.50;;
37495;SDS011;23346;52.088;4.746;2022-11-04T06:37:09;1.67;;;1.57;;
37495;SDS011;23346;52.088;4.746;2022-11-04T06:39:35;1.27;;;0.77;;
37495;SDS011;23346;52.088;4.746;2022-11-04T06:42:01;0.80;;;0.80;;
37495;SDS011;23346;52.088;4.746;2022-11-04T06:44:27;0.47;;;0.47;;
37495;SDS011;23346;52.088;4.746;2022-11-04T06:46:53;0.97;;;0.97;;
37495;SDS011;23346;52.088;4.746;2022-11-04T06:49:20;3.20;;;2.53;;
37495;SDS011;23346;52.088;4.746;2022-11-04T06:51:47;1.17;;;0.97;;
37495;SDS011;23346;52.088;4.746;2022-11-04T06:54:13;0.57;;;0.57;;
37495;SDS011;23346;52.088;4.746;2022-11-04T06:56:40;0.30;;;0.30;;
37495;SDS011;23346;52.088;4.746;2022-11-04T06:59:06;1.37;;;1.27;;
37495;SDS011;23346;52.088;4.746;2022-11-04T07:01:34;0.10;;;0.10;;
37495;SDS011;23346;52.088;4.746;2022-11-04T07:04:01;0.47;;;0.47;;
37495;SDS011;23346;52.088;4.746;2022-11-04T07:06:29;0.87;;;0.87;;
37495;SDS011;23346;52.088;4.746;2022-11-04T07:08:56;0.30;;;0.30;;
37495;SDS011;23346;52.088;4.746;2022-11-04T07:11:23;0.17;;;0.17;;
37495;SDS011;23346;52.088;4.746;2022-11-04T07:13:49;0.60;;;0.60;;
37495;SDS011;23346;52.088;4.746;2022-11-04T07:16:15;0.23;;;0.23;;
37495;SDS011;23346;52.088;4.746;2022-11-04T07:18:42;0.53;;;0.53;;
37495;SDS011;23346;52.088;4.746;2022-11-04T07:21:08;1.23;;;1.23;;
37495;SDS011;23346;52.088;4.746;2022-11-04T07:23:34;1.40;;;1.33;;
37495;SDS011;23346;52.088;4.746;2022-11-04T07:26:01;0.40;;;0.40;;
37495;SDS011;23346;52.088;4.746;2022-11-04T07:28:27;2.67;;;2.17;;
37495;SDS011;23346;52.088;4.746;2022-11-04T07:30:57;3.37;;;1.30;;
37495;SDS011;23346;52.088;4.746;2022-11-04T07:33:23;0.30;;;0.30;;
37495;SDS011;23346;52.088;4.746;2022-11-04T07:35:50;0.63;;;0.50;;
37495;SDS011;23346;52.088;4.746;2022-11-04T07:38:17;0.53;;;0.50;;
37495;SDS011;23346;52.088;4.746;2022-11-04T07:40:43;8.60;;;1.90;;
37495;SDS011;23346;52.088;4.746;2022-11-04T07:43:09;2.10;;;0.60;;
37495;SDS011;23346;52.088;4.746;2022-11-04T07:45:35;2.77;;;1.53;;
37495;SDS011;23346;52.088;4.746;2022-11-04T07:48:01;0.70;;;0.60;;
37495;SDS011;23346;52.088;4.746;2022-11-04T07:50:27;0.40;;;0.40;;
37495;SDS011;23346;52.088;4.746;2022-11-04T07:52:53;1.33;;;0.90;;
37495;SDS011;23346;52.088;4.746;2022-11-04T07:55:19;0.27;;;0.27;;
37495;SDS011;23346;52.088;4.746;2022-11-04T07:57:46;0.40;;;0.40;;
37495;SDS011;23346;52.088;4.746;2022-11-04T08:00:13;0.63;;;0.63;;
37495;SDS011;23346;52.088;4.746;2022-11-04T08:02:39;0.20;;;0.20;;
37495;SDS011;23346;52.088;4.746;2022-11-04T08:05:06;1.93;;;0.93;;
37495;SDS011;23346;52.088;4.746;2022-11-04T08:07:32;0.90;;;0.80;;
37495;SDS011;23346;52.088;4.746;2022-11-04T08:09:58;0.80;;;0.80;;
37495;SDS011;23346;52.088;4.746;2022-11-04T08:12:24;0.30;;;0.30;;
37495;SDS011;23346;52.088;4.746;2022-11-04T08:14:51;0.37;;;0.37;;
37495;SDS011;23346;52.088;4.746;2022-11-04T08:17:17;1.07;;;1.00;;
37495;SDS011;23346;52.088;4.746;2022-11-04T08:19:43;0.23;;;0.23;;
37495;SDS011;23346;52.088;4.746;2022-11-04T08:22:09;4.67;;;2.87;;
37495;SDS011;23346;52.088;4.746;2022-11-04T08:24:35;0.33;;;0.33;;
37495;SDS011;23346;52.088;4.746;2022-11-04T08:27:03;3.60;;;1.90;;
37495;SDS011;23346;52.088;4.746;2022-11-04T08:29:32;14.57;;;2.37;;
37495;SDS011;23346;52.088;4.746;2022-11-04T08:31:58;2.13;;;1.53;;
37495;SDS011;23346;52.088;4.746;2022-11-04T08:34:24;3.13;;;1.30;;
37495;SDS011;23346;52.088;4.746;2022-11-04T08:36:50;0.83;;;0.50;;
37495;SDS011;23346;52.088;4.746;2022-11-04T08:39:21;0.87;;;0.70;;
37495;SDS011;23346;52.088;4.746;2022-11-04T08:41:48;1.43;;;1.33;;
37495;SDS011;23346;52.088;4.746;2022-11-04T08:44:14;12.63;;;0.80;;
37495;SDS011;23346;52.088;4.746;2022-11-04T08:46:42;0.40;;;0.40;;
37495;SDS011;23346;52.088;4.746;2022-11-04T08:49:08;6.33;;;1.60;;
37495;SDS011;23346;52.088;4.746;2022-11-04T08:51:34;1.20;;;0.77;;
37495;SDS011;23346;52.088;4.746;2022-11-04T08:54:03;2.07;;;1.03;;
37495;SDS011;23346;52.088;4.746;2022-11-04T08:56:30;4.23;;;0.50;;
37495;SDS011;23346;52.088;4.746;2022-11-04T08:58:56;1.37;;;0.97;;
37495;SDS011;23346;52.088;4.746;2022-11-04T09:01:23;1.87;;;1.70;;
37495;SDS011;23346;52.088;4.746;2022-11-04T09:03:49;9.20;;;3.90;;
37495;SDS011;23346;52.088;4.746;2022-11-04T09:06:18;1.43;;;0.80;;
37495;SDS011;23346;52.088;4.746;2022-11-04T09:08:44;0.30;;;0.30;;
37495;SDS011;23346;52.088;4.746;2022-11-04T09:11:11;1.07;;;0.80;;
37495;SDS011;23346;52.088;4.746;2022-11-04T09:13:37;2.00;;;1.50;;
37495;SDS011;23346;52.088;4.746;2022-11-04T09:16:04;6.90;;;0.87;;
37495;SDS011;23346;52.088;4.746;2022-11-04T09:18:30;0.73;;;0.67;;
37495;SDS011;23346;52.088;4.746;2022-11-04T09:20:59;7.10;;;1.73;;
37495;SDS011;23346;52.088;4.746;2022-11-04T09:23:26;1.60;;;0.53;;
37495;SDS011;23346;52.088;4.746;2022-11-04T09:25:52;1.70;;;0.90;;
37495;SDS011;23346;52.088;4.746;2022-11-04T09:28:21;0.70;;;0.70;;
37495;SDS011;23346;52.088;4.746;2022-11-04T09:30:48;0.67;;;0.67;;
37495;SDS011;23346;52.088;4.746;2022-11-04T09:33:14;1.00;;;1.00;;
37495;SDS011;23346;52.088;4.746;2022-11-04T09:35:40;1.07;;;0.87;;
37495;SDS011;23346;52.088;4.746;2022-11-04T09:38:06;1.50;;;1.40;;
37495;SDS011;23346;52.088;4.746;2022-11-04T09:40:33;1.00;;;1.00;;
37495;SDS011;23346;52.088;4.746;2022-11-04T09:45:26;0.60;;;0.60;;
37495;SDS011;23346;52.088;4.746;2022-11-04T09:47:54;0.40;;;0.40;;
37495;SDS011;23346;52.088;4.746;2022-11-04T09:50:23;0.87;;;0.83;;
37495;SDS011;23346;52.088;4.746;2022-11-04T09:52:52;1.27;;;0.80;;
37495;SDS011;23346;52.088;4.746;2022-11-04T09:55:28;1.17;;;1.10;;
37495;SDS011;23346;52.088;4.746;2022-11-04T09:57:56;1.83;;;0.80;;
37495;SDS011;23346;52.088;4.746;2022-11-04T10:00:23;1.83;;;0.93;;
37495;SDS011;23346;52.088;4.746;2022-11-04T10:10:56;4.83;;;0.80;;
37495;SDS011;23346;52.088;4.746;2022-11-04T10:13:31;2.27;;;1.53;;
37495;SDS011;23346;52.088;4.746;2022-11-04T10:26:41;0.83;;;0.37;;
37495;SDS011;23346;52.088;4.746;2022-11-04T10:29:43;0.50;;;0.50;;
37495;SDS011;23346;52.088;4.746;2022-11-04T10:32:02;1.83;;;1.00;;
37495;SDS011;23346;52.088;4.746;2022-11-04T10:34:34;1.50;;;1.40;;
37495;SDS011;23346;52.088;4.746;2022-11-04T10:37:01;2.77;;;1.03;;
37495;SDS011;23346;52.088;4.746;2022-11-04T10:39:29;1.07;;;0.97;;
37495;SDS011;23346;52.088;4.746;2022-11-04T10:41:55;1.37;;;1.27;;
37495;SDS011;23346;52.088;4.746;2022-11-04T10:44:26;1.07;;;0.93;;
37495;SDS011;23346;52.088;4.746;2022-11-04T10:51:55;1.80;;;1.13;;
37495;SDS011;23346;52.088;4.746;2022-11-04T10:54:21;1.13;;;1.00;;
37495;SDS011;23346;52.088;4.746;2022-11-04T10:56:50;0.97;;;0.93;;
37495;SDS011;23346;52.088;4.746;2022-11-04T11:01:50;0.80;;;0.80;;
37495;SDS011;23346;52.088;4.746;2022-11-04T11:04:30;1.43;;;1.33;;
37495;SDS011;23346;52.088;4.746;2022-11-04T11:06:57;0.60;;;0.60;;
37495;SDS011;23346;52.088;4.746;2022-11-04T11:09:28;0.77;;;0.77;;
37495;SDS011;23346;52.088;4.746;2022-11-04T11:11:59;1.00;;;0.93;;
37495;SDS011;23346;52.088;4.746;2022-11-04T11:17:40;1.10;;;1.00;;
37495;SDS011;23346;52.088;4.746;2022-11-04T11:22:25;0.20;;;0.20;;
37495;SDS011;23346;52.088;4.746;2022-11-04T11:24:52;0.10;;;0.10;;
37495;SDS011;23346;52.088;4.746;2022-11-04T11:27:18;0.17;;;0.17;;
37495;SDS011;23346;52.088;4.746;2022-11-04T11:29:46;0.10;;;0.10;;
37495;SDS011;23346;52.088;4.746;2022-11-04T11:34:46;0.10;;;0.10;;
37495;SDS011;23346;52.088;4.746;2022-11-04T11:37:20;0.10;;;0.10;;
37495;SDS011;23346;52.088;4.746;2022-11-04T11:39:47;0.20;;;0.20;;
37495;SDS011;23346;52.088;4.746;2022-11-04T11:42:13;0.30;;;0.30;;
37495;SDS011;23346;52.088;4.746;2022-11-04T11:47:17;0.20;;;0.20;;
37495;SDS011;23346;52.088;4.746;2022-11-04T11:49:43;0.30;;;0.30;;
37495;SDS011;23346;52.088;4.746;2022-11-04T11:52:23;0.43;;;0.43;;
37495;SDS011;23346;52.088;4.746;2022-11-04T11:54:52;0.20;;;0.20;;
37495;SDS011;23346;52.088;4.746;2022-11-04T11:57:25;0.30;;;0.30;;
37495;SDS011;23346;52.088;4.746;2022-11-04T12:00:04;0.10;;;0.10;;
37495;SDS011;23346;52.088;4.746;2022-11-04T12:02:35;0.17;;;0.17;;
37495;SDS011;23346;52.088;4.746;2022-11-04T12:05:12;0.10;;;0.10;;
37495;SDS011;23346;52.088;4.746;2022-11-04T12:07:40;0.37;;;0.37;;
37495;SDS011;23346;52.088;4.746;2022-11-04T12:23:27;0.23;;;0.23;;
37495;SDS011;23346;52.088;4.746;2022-11-04T12:28:38;0.10;;;0.10;;
37495;SDS011;23346;52.088;4.746;2022-11-04T12:31:12;0.10;;;0.10;;
37495;SDS011;23346;52.088;4.746;2022-11-04T12:33:50;0.20;;;0.20;;
37495;SDS011;23346;52.088;4.746;2022-11-04T12:38:54;0.10;;;0.10;;
37495;SDS011;23346;52.088;4.746;2022-11-04T12:44:44;0.10;;;0.10;;
37495;SDS011;23346;52.088;4.746;2022-11-04T12:52:32;0.30;;;0.30;;
37495;SDS011;23346;52.088;4.746;2022-11-04T12:55:17;0.30;;;0.30;;
37495;SDS011;23346;52.088;4.746;2022-11-04T13:00:25;1.07;;;1.07;;
37495;SDS011;23346;52.088;4.746;2022-11-04T13:05:34;0.50;;;0.50;;
37495;SDS011;23346;52.088;4.746;2022-11-04T13:08:04;7.40;;;0.60;;
37495;SDS011;23346;52.088;4.746;2022-11-04T13:12:58;0.10;;;0.10;;
37495;SDS011;23346;52.088;4.746;2022-11-04T13:15:26;0.13;;;0.13;;
37495;SDS011;23346;52.088;4.746;2022-11-04T13:17:57;0.20;;;0.20;;
37495;SDS011;23346;52.088;4.746;2022-11-04T13:22:57;0.10;;;0.10;;
37495;SDS011;23346;52.088;4.746;2022-11-04T13:25:32;0.10;;;0.10;;
37495;SDS011;23346;52.088;4.746;2022-11-04T13:27:59;0.20;;;0.20;;
37495;SDS011;23346;52.088;4.746;2022-11-04T13:38:34;0.50;;;0.50;;
37495;SDS011;23346;52.088;4.746;2022-11-04T13:41:15;0.57;;;0.57;;
37495;SDS011;23346;52.088;4.746;2022-11-04T13:43:50;4.03;;;0.40;;
37495;SDS011;23346;52.088;4.746;2022-11-04T13:49:00;4.80;;;0.77;;
37495;SDS011;23346;52.088;4.746;2022-11-04T13:56:48;5.10;;;0.60;;
37495;SDS011;23346;52.088;4.746;2022-11-04T13:59:27;5.17;;;0.80;;
37495;SDS011;23346;52.088;4.746;2022-11-04T14:04:41;5.87;;;1.77;;
37495;SDS011;23346;52.088;4.746;2022-11-04T14:07:08;4.40;;;0.70;;
37495;SDS011;23346;52.088;4.746;2022-11-04T14:22:21;5.20;;;0.73;;
37495;SDS011;23346;52.088;4.746;2022-11-04T14:24:58;5.23;;;1.07;;
37495;SDS011;23346;52.088;4.746;2022-11-04T14:27:26;3.27;;;0.80;;
37495;SDS011;23346;52.088;4.746;2022-11-04T14:29:55;2.37;;;1.00;;
37495;SDS011;23346;52.088;4.746;2022-11-04T14:32:25;6.97;;;0.90;;
37495;SDS011;23346;52.088;4.746;2022-11-04T14:35:15;4.63;;;0.87;;
37495;SDS011;23346;52.088;4.746;2022-11-04T14:37:38;2.90;;;0.80;;
37495;SDS011;23346;52.088;4.746;2022-11-04T14:40:05;3.80;;;0.63;;
37495;SDS011;23346;52.088;4.746;2022-11-04T14:45:19;2.10;;;0.80;;
37495;SDS011;23346;52.088;4.746;2022-11-04T14:47:54;6.47;;;0.60;;
37495;SDS011;23346;52.088;4.746;2022-11-04T14:50:25;3.37;;;0.83;;
37495;SDS011;23346;52.088;4.746;2022-11-04T14:52:59;4.43;;;0.77;;
37495;SDS011;23346;52.088;4.746;2022-11-04T14:55:26;4.67;;;1.00;;
37495;SDS011;23346;52.088;4.746;2022-11-04T14:57:54;2.83;;;0.80;;
37495;SDS011;23346;52.088;4.746;2022-11-04T15:05:34;2.77;;;0.90;;
37495;SDS011;23346;52.088;4.746;2022-11-04T15:10:48;4.07;;;0.80;;
37495;SDS011;23346;52.088;4.746;2022-11-04T15:13:17;19.47;;;7.83;;
37495;SDS011;23346;52.088;4.746;2022-11-04T15:15:43;3.70;;;1.53;;
37495;SDS011;23346;52.088;4.746;2022-11-04T15:18:14;12.33;;;4.97;;
37495;SDS011;23346;52.088;4.746;2022-11-04T15:20:47;5.73;;;2.27;;
37495;SDS011;23346;52.088;4.746;2022-11-04T15:23:15;7.57;;;2.83;;
37495;SDS011;23346;52.088;4.746;2022-11-04T15:25:45;12.73;;;5.57;;
37495;SDS011;23346;52.088;4.746;2022-11-04T15:28:27;6.63;;;3.07;;
37495;SDS011;23346;52.088;4.746;2022-11-04T15:33:26;2.50;;;1.30;;
37495;SDS011;23346;52.088;4.746;2022-11-04T15:35:53;6.50;;;1.43;;
37495;SDS011;23346;52.088;4.746;2022-11-04T15:38:19;4.17;;;1.53;;
37495;SDS011;23346;52.088;4.746;2022-11-04T15:40:45;4.93;;;1.27;;
37495;SDS011;23346;52.088;4.746;2022-11-04T15:43:13;8.33;;;1.27;;
37495;SDS011;23346;52.088;4.746;2022-11-04T15:51:00;38.77;;;17.67;;
37495;SDS011;23346;52.088;4.746;2022-11-04T15:53:28;13.70;;;8.83;;
37495;SDS011;23346;52.088;4.746;2022-11-04T15:55:54;15.03;;;8.97;;
37495;SDS011;23346;52.088;4.746;2022-11-04T15:58:20;12.17;;;8.10;;
37495;SDS011;23346;52.088;4.746;2022-11-04T16:00:52;15.40;;;8.33;;
37495;SDS011;23346;52.088;4.746;2022-11-04T16:03:19;20.57;;;7.10;;
37495;SDS011;23346;52.088;4.746;2022-11-04T16:06:05;13.07;;;6.93;;
37495;SDS011;23346;52.088;4.746;2022-11-04T16:08:31;13.77;;;6.60;;
37495;SDS011;23346;52.088;4.746;2022-11-04T16:11:14;20.27;;;13.43;;
37495;SDS011;23346;52.088;4.746;2022-11-04T16:13:41;23.30;;;12.03;;
37495;SDS011;23346;52.088;4.746;2022-11-04T16:16:14;20.30;;;12.30;;
37495;SDS011;23346;52.088;4.746;2022-11-04T16:18:44;23.20;;;12.73;;
37495;SDS011;23346;52.088;4.746;2022-11-04T16:21:24;18.73;;;10.70;;
37495;SDS011;23346;52.088;4.746;2022-11-04T16:23:55;20.90;;;7.90;;
37495;SDS011;23346;52.088;4.746;2022-11-04T16:26:26;13.07;;;4.73;;
37495;SDS011;23346;52.088;4.746;2022-11-04T16:28:54;13.57;;;4.77;;
37495;SDS011;23346;52.088;4.746;2022-11-04T16:33:47;10.23;;;4.60;;
37495;SDS011;23346;52.088;4.746;2022-11-04T16:36:14;12.37;;;6.27;;
37495;SDS011;23346;52.088;4.746;2022-11-04T16:41:19;12.27;;;5.93;;
37495;SDS011;23346;52.088;4.746;2022-11-04T16:43:46;12.43;;;6.73;;
37495;SDS011;23346;52.088;4.746;2022-11-04T16:46:12;13.57;;;9.10;;
37495;SDS011;23346;52.088;4.746;2022-11-04T16:48:38;17.63;;;10.10;;
37495;SDS011;23346;52.088;4.746;2022-11-04T16:51:04;19.83;;;10.57;;
37495;SDS011;23346;52.088;4.746;2022-11-04T16:53:30;23.50;;;11.90;;
37495;SDS011;23346;52.088;4.746;2022-11-04T16:55:56;20.80;;;11.23;;
37495;SDS011;23346;52.088;4.746;2022-11-04T16:58:23;18.30;;;10.13;;
37495;SDS011;23346;52.088;4.746;2022-11-04T17:00:48;19.97;;;10.40;;
37495;SDS011;23346;52.088;4.746;2022-11-04T17:03:15;11.83;;;5.33;;
37495;SDS011;23346;52.088;4.746;2022-11-04T17:05:46;12.73;;;5.20;;
37495;SDS011;23346;52.088;4.746;2022-11-04T17:08:12;21.27;;;7.00;;
37495;SDS011;23346;52.088;4.746;2022-11-04T17:10:38;14.90;;;7.00;;
37495;SDS011;23346;52.088;4.746;2022-11-04T17:13:04;13.53;;;5.50;;
37495;SDS011;23346;52.088;4.746;2022-11-04T17:15:30;15.63;;;6.83;;
37495;SDS011;23346;52.088;4.746;2022-11-04T17:17:56;15.73;;;7.37;;
37495;SDS011;23346;52.088;4.746;2022-11-04T17:20:22;17.07;;;8.40;;
37495;SDS011;23346;52.088;4.746;2022-11-04T17:22:48;19.33;;;9.77;;
37495;SDS011;23346;52.088;4.746;2022-11-04T17:25:16;17.33;;;10.53;;
37495;SDS011;23346;52.088;4.746;2022-11-04T17:27:43;21.10;;;11.13;;
37495;SDS011;23346;52.088;4.746;2022-11-04T17:30:09;14.03;;;9.37;;
37495;SDS011;23346;52.088;4.746;2022-11-04T17:32:37;14.03;;;7.47;;
37495;SDS011;23346;52.088;4.746;2022-11-04T17:35:03;18.60;;;8.37;;
37495;SDS011;23346;52.088;4.746;2022-11-04T17:37:29;12.67;;;7.17;;